Time;durP1;ratioP1;P1;durP2;ratioP2;P2;SDS_P1;SDS_P2;PMS_P1;PMS_P2;Temp;Humidity;BMP_temperature;BMP_pressure;BME280_temperature;BME280_humidity;BME280_pressure;Samples;Min_cycle;Max_cycle;Signal;HPM_P1;HPM_P2
2021/01/31 00:00:41;;;;;;;22.17;10.95;;;;;;;-10.92;47.37;100682.34;5018018;28;20032;-72
2021/01/31 00:03:11;;;;;;;14.45;8.20;;;;;;;-10.88;46.96;100674.97;5007838;28;20041;-71
2021/01/31 00:05:37;;;;;;;28.77;10.57;;;;;;;-10.69;47.12;100669.06;5019580;28;20491;-71
2021/01/31 00:08:05;;;;;;;25.60;10.18;;;;;;;-10.35;46.55;100667.94;5009326;28;20029;-71
2021/01/31 00:10:32;;;;;;;19.00;8.05;;;;;;;-10.23;46.28;100675.22;5020745;28;20121;-71
2021/01/31 00:12:58;;;;;;;17.00;8.35;;;;;;;-10.18;46.15;100676.25;5020549;28;20064;-72
2021/01/31 00:15:36;;;;;;;24.15;8.43;;;;;;;-10.21;45.81;100674.47;5029548;28;20506;-71
2021/01/31 00:18:02;;;;;;;16.60;7.28;;;;;;;-10.27;45.76;100680.94;5024190;28;20032;-71
2021/01/31 00:20:30;;;;;;;24.50;10.13;;;;;;;-10.34;46.02;100679.81;5015294;28;20025;-72
2021/01/31 00:22:56;;;;;;;16.20;5.55;;;;;;;-10.49;45.69;100676.63;5010475;28;20029;-71
2021/01/31 00:25:22;;;;;;;19.92;7.22;;;;;;;-10.29;45.00;100668.22;5024944;28;20044;-71
2021/01/31 00:27:48;;;;;;;20.00;6.10;;;;;;;-10.32;45.65;100660.53;5019829;28;20053;-72
2021/01/31 00:30:23;;;;;;;18.30;6.82;;;;;;;-10.20;45.04;100666.06;5023503;28;20116;-71
2021/01/31 00:32:49;;;;;;;27.05;9.50;;;;;;;-10.11;44.98;100669.78;5025106;28;20040;-71
2021/01/31 00:35:18;;;;;;;20.75;8.60;;;;;;;-10.00;44.71;100673.63;5023228;28;20036;-71
2021/01/31 00:37:43;;;;;;;33.60;11.13;;;;;;;-10.03;44.06;100673.50;5028166;28;20983;-72
2021/01/31 00:40:10;;;;;;;31.27;13.60;;;;;;;-10.30;44.03;100669.03;5023402;28;20049;-71
2021/01/31 00:42:35;;;;;;;22.00;10.65;;;;;;;-10.33;44.91;100663.84;5024944;28;20611;-71
2021/01/31 00:45:01;;;;;;;28.83;9.50;;;;;;;-10.30;44.56;100675.72;5032094;28;20108;-71
2021/01/31 00:47:27;;;;;;;27.85;12.63;;;;;;;-10.28;44.42;100674.13;5044698;28;20117;-71
2021/01/31 00:49:52;;;;;;;21.27;9.55;;;;;;;-10.24;44.54;100674.31;5008786;28;20037;-71
2021/01/31 00:52:22;;;;;;;16.25;9.07;;;;;;;-10.21;44.50;100679.53;5027192;28;20052;-71
2021/01/31 00:54:49;;;;;;;16.13;7.95;;;;;;;-10.22;44.38;100676.91;5022251;28;20049;-72
2021/01/31 00:57:16;;;;;;;23.52;9.63;;;;;;;-10.25;44.42;100677.66;5031175;28;20063;-72
2021/01/31 00:59:42;;;;;;;30.27;10.75;;;;;;;-10.44;44.28;100675.16;5016678;28;20124;-71
2021/01/31 01:02:15;;;;;;;24.58;10.73;;;;;;;-10.21;43.94;100676.13;5038134;28;20029;-71
2021/01/31 01:04:44;;;;;;;27.15;12.45;;;;;;;-10.23;43.47;100675.22;5027346;28;20037;-72
2021/01/31 01:07:10;;;;;;;25.58;11.57;;;;;;;-10.40;43.20;100671.97;5030572;28;20082;-71
2021/01/31 01:09:36;;;;;;;18.42;9.05;;;;;;;-10.89;42.69;100679.94;5029282;28;20040;-71
2021/01/31 01:12:02;;;;;;;23.90;8.40;;;;;;;-11.34;43.24;100680.47;5032557;28;20037;-71
2021/01/31 01:14:30;;;;;;;28.15;11.25;;;;;;;-11.64;43.78;100680.78;5031580;28;20082;-71
2021/01/31 01:16:57;;;;;;;19.02;8.70;;;;;;;-11.77;44.05;100672.56;5031721;28;20096;-71
2021/01/31 01:19:22;;;;;;;22.35;9.88;;;;;;;-11.90;43.66;100677.00;5028830;28;20033;-71
2021/01/31 01:21:48;;;;;;;25.95;9.50;;;;;;;-12.09;44.31;100681.94;5025200;28;20167;-71
2021/01/31 01:24:13;;;;;;;24.20;9.70;;;;;;;-12.16;44.17;100677.38;5030680;28;20045;-71
2021/01/31 01:26:39;;;;;;;19.25;9.48;;;;;;;-12.21;44.65;100680.53;5028381;28;20034;-71
2021/01/31 01:29:04;;;;;;;20.65;9.90;;;;;;;-11.90;44.20;100677.00;5025785;28;20030;-71
2021/01/31 01:31:29;;;;;;;19.02;9.02;;;;;;;-11.80;44.17;100674.16;5020337;28;20045;-71
2021/01/31 01:33:55;;;;;;;19.15;9.35;;;;;;;-11.90;43.86;100682.03;5030764;28;20117;-72
2021/01/31 01:36:20;;;;;;;18.50;9.95;;;;;;;-12.12;44.25;100681.78;5029184;28;20036;-71
2021/01/31 01:38:46;;;;;;;22.60;7.93;;;;;;;-11.99;44.24;100680.75;5032338;28;20049;-71
2021/01/31 01:41:12;;;;;;;23.55;9.13;;;;;;;-12.06;44.28;100682.97;5020261;28;20037;-71
2021/01/31 01:43:37;;;;;;;21.00;8.52;;;;;;;-12.10;44.33;100682.75;5030374;28;20029;-71
2021/01/31 01:46:18;;;;;;;32.22;10.93;;;;;;;-12.40;44.00;100682.06;5031317;28;20524;-71
2021/01/31 01:49:03;;;;;;;27.65;9.77;;;;;;;-12.39;44.31;100674.59;5014873;28;20140;-72
2021/01/31 01:51:42;;;;;;;23.30;10.38;;;;;;;-12.46;44.08;100670.06;5033809;28;20029;-73
2021/01/31 01:54:13;;;;;;;17.45;7.85;;;;;;;-12.54;43.82;100664.63;5008926;28;20538;-71
2021/01/31 01:56:44;;;;;;;21.03;10.00;;;;;;;-12.59;44.56;100670.22;5026793;28;20120;-71
2021/01/31 01:59:10;;;;;;;19.52;9.43;;;;;;;-12.49;44.72;100667.34;5026834;28;20334;-71
2021/01/31 02:01:42;;;;;;;23.23;9.02;;;;;;;-12.17;43.92;100670.63;5024732;28;20056;-73
2021/01/31 02:04:08;;;;;;;23.17;7.95;;;;;;;-12.25;44.38;100671.13;5034660;28;20030;-70
2021/01/31 02:06:33;;;;;;;22.63;9.70;;;;;;;-11.95;44.60;100670.03;5027082;28;20036;-73
2021/01/31 02:08:59;;;;;;;27.67;9.73;;;;;;;-11.87;44.18;100668.72;5016654;28;20115;-73
2021/01/31 02:11:27;;;;;;;25.52;10.13;;;;;;;-11.70;44.49;100664.50;5040164;28;20513;-72
2021/01/31 02:14:09;;;;;;;27.50;9.55;;;;;;;-11.77;44.00;100657.44;5029147;28;20095;-72
2021/01/31 02:16:40;;;;;;;;;;;;;;;-11.82;45.45;100658.09;5014436;28;20048;-72
2021/01/31 02:19:30;;;;;;;17.17;6.43;;;;;;;-11.75;44.85;100655.84;5026924;28;20000;-71
2021/01/31 02:22:18;;;;;;;17.75;8.98;;;;;;;-11.57;43.93;100661.75;5025989;28;20044;-70
2021/01/31 02:25:00;;;;;;;22.45;7.40;;;;;;;-11.73;43.87;100659.28;5031917;28;20252;-71
2021/01/31 02:27:59;;;;;;;18.88;9.27;;;;;;;-11.79;44.29;100654.84;5025290;28;20088;-71
2021/01/31 02:30:34;;;;;;;19.45;9.48;;;;;;;-11.95;44.29;100647.34;5008267;28;20050;-71
2021/01/31 02:33:27;;;;;;;22.83;9.20;;;;;;;-12.21;45.05;100645.28;5021781;28;20036;-70
2021/01/31 02:36:03;;;;;;;19.17;9.18;;;;;;;-12.23;44.67;100644.34;5043657;28;20035;-73
2021/01/31 02:38:44;;;;;;;19.85;7.70;;;;;;;-12.29;45.14;100635.59;5025618;28;20083;-71
2021/01/31 02:41:20;;;;;;;13.57;5.80;;;;;;;-12.22;45.54;100638.53;5020356;28;20058;-71
2021/01/31 02:43:53;;;;;;;18.70;7.22;;;;;;;-11.99;44.67;100633.72;5033028;28;20098;-71
2021/01/31 02:46:28;;;;;;;23.73;9.70;;;;;;;-12.16;45.03;100634.56;5029207;28;20030;-70
2021/01/31 02:49:02;;;;;;;26.13;9.13;;;;;;;-12.24;45.35;100635.06;5024007;28;20284;-71
2021/01/31 02:51:36;;;;;;;23.58;7.53;;;;;;;-12.09;46.08;100629.03;5022592;28;20530;-71
2021/01/31 02:54:05;;;;;;;16.58;6.00;;;;;;;-11.85;45.99;100635.22;5022143;28;20108;-71
2021/01/31 02:56:49;;;;;;;16.45;8.57;;;;;;;-11.75;45.62;100640.72;5023901;28;20116;-71
2021/01/31 02:59:24;;;;;;;11.25;6.32;;;;;;;-11.68;46.03;100637.69;5008288;28;20033;-71
2021/01/31 03:02:12;;;;;;;26.25;9.60;;;;;;;-11.33;45.75;100635.91;5024932;28;20044;-71
2021/01/31 03:05:00;;;;;;;16.80;6.88;;;;;;;-11.61;46.83;100633.00;5019767;28;20121;-71
2021/01/31 03:07:33;;;;;;;17.35;8.23;;;;;;;-11.38;46.58;100623.97;5020177;28;20062;-71
2021/01/31 03:10:06;;;;;;;16.92;7.00;;;;;;;-11.14;46.33;100615.75;5022856;28;20064;-71
2021/01/31 03:13:04;;;;;;;16.33;6.07;;;;;;;-11.21;46.88;100622.19;5003834;28;20032;-71
2021/01/31 03:15:35;;;;;;;15.57;7.45;;;;;;;-11.27;47.18;100623.56;5024592;28;20072;-71
2021/01/31 03:18:07;;;;;;;;;;;;;;;-11.17;47.14;100620.69;5024661;28;20029;-70
2021/01/31 03:20:49;;;;;;;13.27;3.75;;;;;;;-10.93;46.52;100622.53;5022504;28;19921;-71
2021/01/31 03:23:30;;;;;;;14.93;7.50;;;;;;;-11.07;45.94;100621.94;5021560;28;20033;-71
2021/01/31 03:26:02;;;;;;;17.83;7.07;;;;;;;-11.12;45.98;100615.84;5028227;28;20033;-71
2021/01/31 03:28:27;;;;;;;12.63;6.28;;;;;;;-11.28;45.69;100624.38;5022996;28;20037;-70
2021/01/31 03:30:57;;;;;;;19.83;5.85;;;;;;;-11.24;46.32;100616.13;5006785;28;20099;-72
2021/01/31 03:33:29;;;;;;;25.10;7.95;;;;;;;-11.15;46.70;100611.53;5004658;28;20041;-70
2021/01/31 03:35:55;;;;;;;23.33;8.38;;;;;;;-11.00;47.30;100611.31;5026303;28;20079;-71
2021/01/31 03:38:26;;;;;;;22.05;7.72;;;;;;;-10.93;46.48;100608.25;5004909;28;20041;-71
2021/01/31 03:40:57;;;;;;;15.75;8.57;;;;;;;-10.77;46.21;100609.78;5026414;28;20039;-72
2021/01/31 03:43:23;;;;;;;20.50;7.75;;;;;;;-10.67;45.98;100616.94;5026595;28;20746;-71
2021/01/31 03:46:13;;;;;;;14.48;7.05;;;;;;;-10.51;45.62;100613.41;5024406;28;20034;-71
2021/01/31 03:48:49;;;;;;;20.13;8.70;;;;;;;-10.66;45.60;100607.69;5039665;28;20034;-71
2021/01/31 03:51:17;;;;;;;22.55;8.95;;;;;;;-10.67;45.86;100614.41;5027617;28;20038;-71
2021/01/31 03:53:43;;;;;;;24.02;8.23;;;;;;;-10.46;45.44;100616.13;5029056;28;20103;-71
2021/01/31 03:56:12;;;;;;;18.13;8.25;;;;;;;-10.35;44.90;100625.00;5040341;28;20038;-71
2021/01/31 03:58:41;;;;;;;19.42;7.97;;;;;;;-10.41;44.91;100624.78;5025100;28;20037;-70
2021/01/31 04:01:07;;;;;;;20.27;8.77;;;;;;;-10.52;44.54;100625.97;5016306;28;20029;-70
2021/01/31 04:03:41;;;;;;;19.75;8.63;;;;;;;-10.67;45.17;100616.94;5025071;28;20048;-71
2021/01/31 04:06:13;;;;;;;19.38;7.38;;;;;;;-10.61;45.42;100612.16;5028757;28;20033;-71
2021/01/31 04:08:39;;;;;;;;;;;;;;;-10.53;45.34;100609.94;5028644;28;20044;-70
2021/01/31 04:11:05;;;;;;;14.95;7.43;;;;;;;-10.64;44.68;100617.09;5029170;28;20396;-71
2021/01/31 04:13:33;;;;;;;19.48;8.05;;;;;;;-10.79;45.09;100612.25;5027986;28;20112;-70
2021/01/31 04:16:02;;;;;;;17.58;6.65;;;;;;;-10.84;45.25;100612.84;5023849;28;20581;-71
2021/01/31 04:18:27;;;;;;;27.20;9.35;;;;;;;-10.91;45.60;100605.81;5020518;28;20117;-71
2021/01/31 04:20:53;;;;;;;25.15;9.68;;;;;;;-11.01;45.48;100609.59;5027627;28;20623;-71
2021/01/31 04:23:20;;;;;;;27.15;9.48;;;;;;;-11.03;45.82;100617.09;5023954;28;20479;-71
2021/01/31 04:25:46;;;;;;;21.92;9.80;;;;;;;-10.89;46.21;100606.72;5026548;28;20037;-71
2021/01/31 04:28:21;;;;;;;21.00;8.80;;;;;;;-10.90;45.34;100615.13;5025424;28;20029;-71
2021/01/31 04:30:56;;;;;;;16.50;8.18;;;;;;;-11.05;45.27;100617.81;5021602;28;20930;-71
2021/01/31 04:33:23;;;;;;;18.23;7.65;;;;;;;-11.14;45.20;100617.44;5023741;28;20038;-71
2021/01/31 04:35:49;;;;;;;22.27;9.50;;;;;;;-11.25;45.29;100620.31;5005960;28;20558;-71
2021/01/31 04:38:15;;;;;;;17.73;8.75;;;;;;;-11.39;45.36;100622.22;5028333;28;20079;-71
2021/01/31 04:40:40;;;;;;;16.83;8.50;;;;;;;-11.39;45.65;100617.19;5031082;28;20033;-71
2021/01/31 04:43:11;;;;;;;23.23;7.63;;;;;;;-11.43;45.97;100620.34;5033804;28;20120;-71
2021/01/31 04:45:38;;;;;;;18.27;9.52;;;;;;;-11.17;46.13;100628.25;5025894;28;20041;-71
2021/01/31 04:48:28;;;;;;;22.38;7.38;;;;;;;-11.05;46.17;100621.22;5028579;28;20029;-71
2021/01/31 04:51:20;;;;;;;25.98;10.50;;;;;;;-10.96;46.47;100624.13;5043394;28;20552;-71
2021/01/31 04:54:19;;;;;;;18.77;8.73;;;;;;;-10.77;46.17;100614.84;5027410;28;20160;-70
2021/01/31 04:56:47;;;;;;;17.40;8.13;;;;;;;-10.68;46.00;100617.75;5030306;28;20513;-71
2021/01/31 04:59:27;;;;;;;20.13;9.20;;;;;;;-10.60;46.07;100616.41;5029382;28;20056;-70
2021/01/31 05:02:03;;;;;;;24.35;8.02;;;;;;;-10.63;45.96;100617.94;5028055;28;20509;-71
2021/01/31 05:04:32;;;;;;;15.27;5.90;;;;;;;-10.55;45.95;100617.47;5024474;28;20659;-71
2021/01/31 05:07:03;;;;;;;26.83;9.48;;;;;;;-10.43;46.17;100618.78;5028387;28;20674;-71
2021/01/31 05:09:29;;;;;;;19.33;7.40;;;;;;;-10.26;47.07;100616.94;5034253;28;20098;-72
2021/01/31 05:12:12;;;;;;;20.08;8.05;;;;;;;-10.15;47.03;100620.75;5037772;28;20037;-71
2021/01/31 05:15:06;;;;;;;22.75;7.95;;;;;;;-9.72;47.20;100615.75;5029413;28;20120;-71
2021/01/31 05:17:32;;;;;;;20.52;7.30;;;;;;;-9.73;48.26;100620.72;5031184;28;20025;-70
2021/01/31 05:20:00;;;;;;;25.48;9.98;;;;;;;-9.49;47.56;100617.44;5048326;28;20508;-71
2021/01/31 05:22:31;;;;;;;22.70;10.52;;;;;;;-9.63;47.63;100614.38;5033051;28;20486;-71
2021/01/31 05:24:57;;;;;;;18.92;8.20;;;;;;;-9.65;46.93;100610.94;5024200;28;20040;-71
2021/01/31 05:27:29;;;;;;;21.65;10.82;;;;;;;-9.89;46.50;100610.84;5025114;28;20040;-72
2021/01/31 05:29:54;;;;;;;24.77;9.43;;;;;;;-9.95;46.98;100619.03;5028015;28;20025;-71
2021/01/31 05:32:20;;;;;;;22.35;8.45;;;;;;;-9.97;47.69;100615.56;5025199;28;20070;-71
2021/01/31 05:34:50;;;;;;;24.52;9.88;;;;;;;-9.84;47.13;100625.38;5027518;28;20025;-71
2021/01/31 05:37:20;;;;;;;20.13;9.30;;;;;;;-9.68;47.09;100616.69;5024373;28;20458;-72
2021/01/31 05:40:09;;;;;;;24.42;9.98;;;;;;;-9.77;47.99;100621.41;5034858;28;20475;-71
2021/01/31 05:42:41;;;;;;;18.58;8.68;;;;;;;-9.64;48.37;100622.75;5029334;28;20895;-71
2021/01/31 05:45:29;;;;;;;20.23;8.02;;;;;;;-9.44;47.80;100615.91;5017947;28;20037;-71
2021/01/31 05:47:55;;;;;;;25.55;9.35;;;;;;;-9.67;48.31;100615.06;5034864;28;20049;-71
2021/01/31 05:50:40;;;;;;;17.83;8.70;;;;;;;-9.30;47.81;100617.28;5017817;28;20029;-72
2021/01/31 05:53:26;;;;;;;16.55;8.57;;;;;;;-9.26;47.88;100618.28;5018579;28;20478;-71
2021/01/31 05:56:11;;;;;;;26.70;11.07;;;;;;;-9.05;47.69;100616.53;5032222;28;21289;-71
2021/01/31 05:58:36;;;;;;;24.95;10.50;;;;;;;-9.11;47.19;100613.78;5013497;28;20025;-71
2021/01/31 06:01:11;;;;;;;35.65;10.65;;;;;;;-9.12;47.68;100607.84;5031426;28;20391;-71
2021/01/31 06:03:38;;;;;;;23.30;10.07;;;;;;;-9.35;48.40;100604.47;5011599;28;20136;-70
2021/01/31 06:06:20;;;;;;;21.48;10.65;;;;;;;-8.93;47.86;100604.28;5020678;28;20036;-71
2021/01/31 06:08:46;;;;;;;;;;;;;;;-9.07;48.19;100608.00;5027391;28;20056;-72
2021/01/31 06:11:21;;;;;;;23.77;10.32;;;;;;;-9.32;49.28;100597.00;5027407;28;19921;-71
2021/01/31 06:13:59;;;;;;;30.50;9.98;;;;;;;-9.58;50.11;100592.63;5029934;28;20095;-71
2021/01/31 06:16:25;;;;;;;27.77;9.02;;;;;;;-9.77;50.66;100591.94;5008090;28;20033;-72
2021/01/31 06:18:59;;;;;;;28.85;10.60;;;;;;;-9.59;50.34;100596.84;5028006;28;20544;-71
2021/01/31 06:21:42;;;;;;;23.00;9.35;;;;;;;-9.69;50.57;100598.97;5028324;28;20033;-71
2021/01/31 06:24:28;;;;;;;24.42;10.82;;;;;;;-9.50;49.95;100606.44;5028735;28;20512;-71
2021/01/31 06:26:58;;;;;;;24.45;9.80;;;;;;;-9.40;49.56;100608.50;5025168;28;20033;-71
2021/01/31 06:29:45;;;;;;;27.92;10.18;;;;;;;-9.08;48.90;100624.00;5022195;28;20798;-71
2021/01/31 06:32:17;;;;;;;27.20;10.50;;;;;;;-8.93;48.34;100628.75;5020437;28;20694;-72
2021/01/31 06:34:47;;;;;;;;;;;;;;;-8.99;48.35;100621.78;5035061;28;20038;-72
2021/01/31 06:37:33;;;;;;;19.65;8.00;;;;;;;-8.99;48.93;100616.72;5038331;28;19920;-74
2021/01/31 06:40:36;;;;;;;21.52;8.65;;;;;;;-9.32;50.02;100621.47;5036117;28;20032;-74
2021/01/31 06:43:38;;;;;;;27.77;10.88;;;;;;;-9.51;50.65;100619.88;5035813;28;20033;-71
2021/01/31 06:46:09;;;;;;;21.25;11.25;;;;;;;-9.03;49.35;100619.97;5027129;28;20341;-71
2021/01/31 06:48:41;;;;;;;25.10;8.27;;;;;;;-8.99;49.17;100621.78;5035244;28;20040;-71
2021/01/31 06:51:25;;;;;;;;;;;;;;;-8.82;48.94;100621.56;5031277;28;20936;-71
2021/01/31 06:54:29;;;;;;;17.13;7.72;;;;;;;-8.71;49.07;100615.19;5034058;28;19919;-71
2021/01/31 06:57:36;;;;;;;22.30;8.93;;;;;;;-8.47;48.72;100613.47;4955659;28;20154;-72
2021/01/31 07:00:27;;;;;;;24.90;9.38;;;;;;;-8.31;48.11;100611.47;4964187;28;20044;-71
2021/01/31 07:03:30;;;;;;;28.08;10.73;;;;;;;-8.32;47.95;100612.25;5048450;28;20749;-71
2021/01/31 07:06:37;;;;;;;23.30;12.10;;;;;;;-7.93;47.78;100616.91;5031637;28;20040;-71
2021/01/31 07:09:06;;;;;;;20.55;11.20;;;;;;;-7.92;47.76;100608.47;5027714;28;20511;-72
2021/01/31 07:11:43;;;;;;;24.50;11.75;;;;;;;-7.88;48.44;100605.22;5027850;28;20061;-71
2021/01/31 07:14:22;;;;;;;33.50;11.45;;;;;;;-7.63;48.54;100614.44;5043510;28;20164;-71
2021/01/31 07:17:04;;;;;;;30.45;10.68;;;;;;;-7.35;48.14;100610.19;5030363;28;20029;-71
2021/01/31 07:19:33;;;;;;;;;;;;;;;-7.54;48.38;100616.41;5025320;28;20025;-71
2021/01/31 07:22:22;;;;;;;19.63;7.78;;;;;;;-7.18;48.24;100610.66;5041478;28;20291;-71
2021/01/31 07:24:59;;;;;;;26.05;8.52;;;;;;;-7.32;47.57;100616.22;5025082;28;20081;-71
2021/01/31 07:27:24;;;;;;;24.63;10.38;;;;;;;-7.08;48.01;100608.44;5017004;28;20087;-73
2021/01/31 07:30:17;;;;;;;26.73;10.73;;;;;;;-7.46;48.80;100614.94;5024277;28;20033;-72
2021/01/31 07:33:01;;;;;;;27.30;10.52;;;;;;;-7.43;49.07;100615.03;5039659;28;20099;-71
2021/01/31 07:35:37;;;;;;;28.35;9.93;;;;;;;-6.93;48.59;100618.16;5021489;28;20030;-72
2021/01/31 07:38:25;;;;;;;30.45;10.95;;;;;;;-6.82;48.39;100615.94;5026327;28;20029;-71
2021/01/31 07:40:56;;;;;;;26.70;10.45;;;;;;;-6.50;47.82;100616.75;5020458;28;20101;-72
2021/01/31 07:43:26;;;;;;;31.85;11.85;;;;;;;-6.38;47.70;100613.66;5030833;28;20063;-72
2021/01/31 07:46:00;;;;;;;26.08;11.80;;;;;;;-6.05;46.94;100607.69;5027107;28;20636;-71
2021/01/31 07:48:39;;;;;;;27.13;10.63;;;;;;;-6.26;47.67;100610.59;5027449;28;20079;-71
2021/01/31 07:51:06;;;;;;;28.25;10.15;;;;;;;-6.33;47.73;100608.69;5031308;28;20575;-71
2021/01/31 07:53:38;;;;;;;32.20;12.35;;;;;;;-6.35;47.50;100612.88;5024635;28;20040;-71
2021/01/31 07:56:31;;;;;;;36.55;11.68;;;;;;;-6.39;47.57;100609.41;5023620;28;20116;-72
2021/01/31 07:58:58;;;;;;;31.55;11.13;;;;;;;-6.19;46.87;100607.38;5026277;28;20037;-71
2021/01/31 08:01:39;;;;;;;23.27;8.55;;;;;;;-6.20;46.87;100613.25;5020714;28;20030;-72
2021/01/31 08:04:19;;;;;;;21.80;10.52;;;;;;;-6.29;47.84;100603.72;5025475;28;20514;-71
2021/01/31 08:06:56;;;;;;;21.48;10.65;;;;;;;-5.71;46.87;100603.38;5020971;28;21180;-71
2021/01/31 08:09:27;;;;;;;25.73;10.00;;;;;;;-4.82;44.50;100600.97;5022207;28;20037;-72
2021/01/31 08:12:03;;;;;;;31.15;10.57;;;;;;;-4.43;43.57;100602.53;5027455;28;20139;-71
2021/01/31 08:15:06;;;;;;;33.45;12.63;;;;;;;-4.76;43.44;100605.34;5021058;28;20026;-71
2021/01/31 08:17:53;;;;;;;24.30;9.80;;;;;;;-5.20;44.95;100608.72;5026849;28;20637;-72
2021/01/31 08:20:31;;;;;;;25.33;9.75;;;;;;;-5.16;44.49;100610.50;5028505;28;20032;-71
2021/01/31 08:23:24;;;;;;;28.20;10.38;;;;;;;-5.08;44.71;100600.50;5021272;28;20040;-71
2021/01/31 08:25:58;;;;;;;28.25;11.50;;;;;;;-3.50;41.24;100609.91;5027139;28;20052;-71
2021/01/31 08:28:31;;;;;;;23.27;11.05;;;;;;;-3.61;43.77;100614.88;5027141;28;20038;-72
2021/01/31 08:31:03;;;;;;;26.23;11.93;;;;;;;-0.97;38.83;100612.16;5022851;28;20041;-70
2021/01/31 08:33:38;;;;;;;21.42;9.30;;;;;;;0.01;34.70;100608.88;5028129;28;20025;-71
2021/01/31 08:36:23;;;;;;;26.92;11.95;;;;;;;1.17;33.64;100609.41;5029182;28;20658;-70
2021/01/31 08:38:52;;;;;;;19.45;8.80;;;;;;;1.77;31.66;100606.44;5030154;28;20031;-72
2021/01/31 08:41:27;;;;;;;26.27;10.63;;;;;;;2.91;31.45;100603.59;5023771;28;20101;-71
2021/01/31 08:43:56;;;;;;;21.40;9.90;;;;;;;3.15;29.74;100601.56;5009422;28;20128;-72
2021/01/31 08:46:24;;;;;;;24.63;9.15;;;;;;;3.06;29.48;100601.69;5024841;28;20034;-72
2021/01/31 08:48:53;;;;;;;17.98;9.18;;;;;;;3.54;29.24;100602.75;5031558;28;20635;-72
2021/01/31 08:51:29;;;;;;;19.67;8.85;;;;;;;3.55;30.02;100601.03;5008510;28;20041;-71
2021/01/31 08:54:13;;;;;;;24.10;9.98;;;;;;;2.65;31.66;100603.06;5019950;28;20036;-72
2021/01/31 08:56:42;;;;;;;24.77;11.48;;;;;;;1.37;34.28;100604.09;5025608;28;20025;-72
2021/01/31 08:59:15;;;;;;;27.15;12.55;;;;;;;0.26;35.34;100614.84;5021634;28;20061;-72
2021/01/31 09:01:43;;;;;;;27.38;12.23;;;;;;;-0.97;38.05;100609.56;5026834;28;20041;-72
2021/01/31 09:04:12;;;;;;;26.50;12.00;;;;;;;-1.51;38.98;100608.47;5022843;28;20030;-72
2021/01/31 09:06:39;;;;;;;31.20;12.57;;;;;;;-1.09;39.58;100608.63;5022542;28;20513;-72
2021/01/31 09:09:06;;;;;;;30.35;12.52;;;;;;;-0.24;38.79;100615.69;5027959;28;20045;-72
2021/01/31 09:11:32;;;;;;;21.45;11.27;;;;;;;0.84;36.88;100600.13;5020860;28;20034;-72
2021/01/31 09:14:23;;;;;;;27.63;12.82;;;;;;;1.21;35.44;100599.91;5023823;28;20057;-72
2021/01/31 09:16:49;;;;;;;32.38;13.70;;;;;;;1.55;34.84;100599.75;5023489;28;20037;-72
2021/01/31 09:19:23;;;;;;;37.72;14.77;;;;;;;1.08;36.57;100605.16;5031257;28;20037;-72
2021/01/31 09:21:53;;;;;;;29.40;11.50;;;;;;;0.93;36.06;100605.22;5016522;28;20033;-72
2021/01/31 09:24:20;;;;;;;28.10;13.23;;;;;;;0.00;37.42;100607.13;5023094;28;20125;-72
2021/01/31 09:26:55;;;;;;;27.67;11.77;;;;;;;0.55;37.62;100598.50;5026648;28;20037;-72
2021/01/31 09:29:24;;;;;;;29.60;12.00;;;;;;;0.84;37.27;100595.81;5029664;28;20030;-72
2021/01/31 09:31:55;;;;;;;25.00;11.52;;;;;;;1.02;36.18;100602.59;5023612;28;20138;-72
2021/01/31 09:34:23;;;;;;;22.88;10.35;;;;;;;0.66;37.30;100611.31;5020385;28;20037;-72
2021/01/31 09:37:23;;;;;;;31.10;13.68;;;;;;;1.08;36.75;100599.13;5038607;28;20030;-71
2021/01/31 09:39:51;;;;;;;24.42;10.40;;;;;;;0.88;37.48;100596.63;5001325;28;20059;-72
2021/01/31 09:42:17;;;;;;;26.38;11.30;;;;;;;1.07;36.94;100606.00;5020198;28;20033;-72
2021/01/31 09:44:51;;;;;;;25.90;11.18;;;;;;;1.69;36.00;100601.34;5030687;28;20108;-73
2021/01/31 09:47:19;;;;;;;25.42;11.00;;;;;;;1.88;36.53;100596.06;5021860;28;20793;-73
2021/01/31 09:49:51;;;;;;;24.80;10.90;;;;;;;0.79;37.25;100596.69;5020099;28;20047;-73
2021/01/31 09:52:16;;;;;;;18.05;8.68;;;;;;;1.52;36.65;100591.16;5028498;28;20380;-72
2021/01/31 09:54:42;;;;;;;23.13;10.40;;;;;;;2.64;35.26;100581.53;5042423;28;20091;-72
2021/01/31 09:57:22;;;;;;;25.63;10.75;;;;;;;1.46;36.76;100585.19;5020442;28;20030;-72
2021/01/31 09:59:59;;;;;;;22.23;10.07;;;;;;;1.77;35.81;100575.53;5025855;28;20065;-72
2021/01/31 10:02:31;;;;;;;24.33;9.82;;;;;;;1.56;36.02;100578.28;5038469;28;20034;-72
2021/01/31 10:05:07;;;;;;;25.60;11.23;;;;;;;2.11;36.74;100570.09;5021618;28;20033;-72
2021/01/31 10:07:36;;;;;;;18.00;9.85;;;;;;;1.74;36.79;100567.81;5005879;28;20037;-72
2021/01/31 10:10:20;;;;;;;25.95;10.23;;;;;;;2.52;34.38;100569.63;5020310;28;20499;-72
2021/01/31 10:12:45;;;;;;;19.92;10.43;;;;;;;3.16;33.34;100567.13;5023020;28;20738;-72
2021/01/31 10:15:11;;;;;;;23.02;10.00;;;;;;;3.29;33.92;100571.28;5017694;28;20037;-72
2021/01/31 10:17:45;;;;;;;21.92;11.43;;;;;;;1.94;36.39;100576.22;5035914;28;20038;-72
2021/01/31 10:20:35;;;;;;;24.38;10.40;;;;;;;1.89;36.53;100575.44;5021848;28;20117;-73
2021/01/31 10:23:20;;;;;;;21.52;10.57;;;;;;;2.84;33.67;100575.28;5027163;28;20056;-72
2021/01/31 10:26:01;;;;;;;21.58;10.68;;;;;;;2.43;35.14;100567.16;5018483;28;20030;-73
2021/01/31 10:28:35;;;;;;;20.80;10.30;;;;;;;3.41;32.79;100569.38;5008506;28;20048;-73
2021/01/31 10:31:01;;;;;;;23.17;10.43;;;;;;;2.57;36.51;100559.25;5020465;28;20033;-72
2021/01/31 10:33:42;;;;;;;22.48;8.98;;;;;;;2.77;34.85;100567.59;5017657;28;20034;-73
2021/01/31 10:36:28;;;;;;;22.88;10.63;;;;;;;3.83;32.35;100565.25;5039706;28;20042;-72
2021/01/31 10:39:00;;;;;;;21.70;10.23;;;;;;;4.25;31.74;100570.53;5003412;28;20086;-72
2021/01/31 10:41:27;;;;;;;19.15;9.20;;;;;;;4.09;32.07;100563.94;5002993;28;20056;-72
2021/01/31 10:44:00;;;;;;;18.88;9.07;;;;;;;4.89;31.82;100558.06;5028061;28;20032;-72
2021/01/31 10:46:27;;;;;;;20.98;9.65;;;;;;;5.03;31.33;100560.38;5021365;28;20120;-72
2021/01/31 10:48:52;;;;;;;17.73;9.52;;;;;;;4.73;30.52;100559.25;5025982;28;20095;-73
2021/01/31 10:51:18;;;;;;;24.13;10.27;;;;;;;4.14;33.15;100559.53;5019700;28;20057;-72
2021/01/31 10:53:45;;;;;;;20.13;9.80;;;;;;;4.24;32.41;100550.72;5020338;28;20107;-73
2021/01/31 10:56:11;;;;;;;19.98;9.48;;;;;;;3.99;32.56;100552.91;5014677;28;20127;-72
2021/01/31 10:58:37;;;;;;;19.00;9.13;;;;;;;4.05;32.50;100552.81;5024078;28;20162;-73
2021/01/31 11:01:03;;;;;;;15.57;8.73;;;;;;;4.71;32.00;100548.09;5017433;28;20025;-72
2021/01/31 11:03:28;;;;;;;17.67;8.57;;;;;;;5.24;30.83;100539.16;5019874;28;20033;-72
2021/01/31 11:05:54;;;;;;;20.60;9.05;;;;;;;5.66;30.11;100536.44;5025735;28;20075;-72
2021/01/31 11:08:21;;;;;;;22.45;9.27;;;;;;;5.28;29.06;100539.09;5006736;28;20072;-72
2021/01/31 11:10:48;;;;;;;18.13;9.38;;;;;;;4.95;32.09;100542.41;5021460;28;20033;-73
2021/01/31 11:13:15;;;;;;;18.02;9.13;;;;;;;5.15;30.48;100539.38;5026417;28;20033;-73
2021/01/31 11:15:40;;;;;;;17.08;9.38;;;;;;;5.31;30.15;100546.81;5028551;28;20137;-73
2021/01/31 11:18:06;;;;;;;15.82;8.82;;;;;;;4.78;31.12;100545.31;5024464;28;20188;-74
2021/01/31 11:20:32;;;;;;;16.05;8.60;;;;;;;5.49;30.85;100533.41;5022764;28;20483;-72
2021/01/31 11:22:58;;;;;;;14.80;8.20;;;;;;;4.92;30.89;100528.66;5042989;28;20045;-72
2021/01/31 11:25:24;;;;;;;18.42;8.43;;;;;;;4.40;31.62;100536.59;5028007;28;20139;-73
2021/01/31 11:27:50;;;;;;;17.52;8.82;;;;;;;4.76;31.48;100535.88;5009320;28;20029;-71
2021/01/31 11:30:16;;;;;;;20.65;8.18;;;;;;;4.68;31.44;100525.69;5036822;28;20061;-73
2021/01/31 11:32:42;;;;;;;17.15;8.32;;;;;;;4.70;31.32;100528.25;5004653;28;20041;-72
2021/01/31 11:35:09;;;;;;;18.75;7.95;;;;;;;4.62;30.86;100533.59;5026243;28;20021;-72
2021/01/31 11:37:34;;;;;;;20.88;9.80;;;;;;;4.23;31.91;100536.09;5020677;28;20160;-72
2021/01/31 11:40:00;;;;;;;17.83;9.18;;;;;;;3.63;33.47;100538.84;5022662;28;20116;-71
2021/01/31 11:42:25;;;;;;;19.48;9.65;;;;;;;3.28;33.80;100527.34;5006443;28;20040;-72